sensor_id;sensor_type;location;lat;lon;timestamp;pressure;altitude;pressure_sealevel;temperature;humidity
78835;BME280;68187;42.682;23.352;2023-04-01T00:01:12;94276.34;;;11.42;56.77
78835;BME280;68187;42.682;23.352;2023-04-01T00:03:41;94280.94;;;11.36;56.90
78835;BME280;68187;42.682;23.352;2023-04-01T00:06:09;94285.53;;;11.31;56.64
78835;BME280;68187;42.682;23.352;2023-04-01T00:08:37;94279.72;;;11.29;56.20
78835;BME280;68187;42.682;23.352;2023-04-01T00:11:05;94278.25;;;11.23;55.61
78835;BME280;68187;42.682;23.352;2023-04-01T00:13:31;94278.31;;;11.18;56.15
78835;BME280;68187;42.682;23.352;2023-04-01T00:15:59;94272.22;;;11.04;55.91
78835;BME280;68187;42.682;23.352;2023-04-01T00:18:26;94294.97;;;11.00;56.58
78835;BME280;68187;42.682;23.352;2023-04-01T00:20:55;94290.56;;;10.95;56.62
78835;BME280;68187;42.682;23.352;2023-04-01T00:23:21;94293.78;;;10.92;57.33
78835;BME280;68187;42.682;23.352;2023-04-01T00:25:48;94289.00;;;10.94;57.14
78835;BME280;68187;42.682;23.352;2023-04-01T00:28:15;94284.28;;;10.91;56.70
78835;BME280;68187;42.682;23.352;2023-04-01T00:30:43;94273.09;;;10.81;57.03
78835;BME280;68187;42.682;23.352;2023-04-01T00:33:10;94286.13;;;10.91;56.70
78835;BME280;68187;42.682;23.352;2023-04-01T00:35:37;94284.34;;;10.86;56.53
78835;BME280;68187;42.682;23.352;2023-04-01T00:38:05;94269.03;;;10.69;57.26
78835;BME280;68187;42.682;23.352;2023-04-01T00:40:35;94252.94;;;10.66;57.46
78835;BME280;68187;42.682;23.352;2023-04-01T00:43:03;94277.88;;;10.79;56.67
78835;BME280;68187;42.682;23.352;2023-04-01T00:45:37;94269.22;;;10.73;57.42
78835;BME280;68187;42.682;23.352;2023-04-01T00:48:07;94263.00;;;10.64;58.01
78835;BME280;68187;42.682;23.352;2023-04-01T00:50:36;94262.53;;;10.62;58.20
78835;BME280;68187;42.682;23.352;2023-04-01T00:53:07;94236.59;;;10.45;59.01
78835;BME280;68187;42.682;23.352;2023-04-01T00:55:37;94243.09;;;10.53;59.56
78835;BME280;68187;42.682;23.352;2023-04-01T00:58:07;94250.53;;;10.51;59.99
78835;BME280;68187;42.682;23.352;2023-04-01T01:00:35;94237.53;;;10.54;59.87
78835;BME280;68187;42.682;23.352;2023-04-01T01:03:02;94241.69;;;10.60;60.71
78835;BME280;68187;42.682;23.352;2023-04-01T01:05:38;94233.84;;;10.55;60.15
78835;BME280;68187;42.682;23.352;2023-04-01T01:08:15;94230.19;;;10.51;60.02
78835;BME280;68187;42.682;23.352;2023-04-01T01:10:47;94204.22;;;10.40;60.24
78835;BME280;68187;42.682;23.352;2023-04-01T01:13:17;94218.22;;;10.40;60.05
78835;BME280;68187;42.682;23.352;2023-04-01T01:15:53;94197.78;;;10.27;60.43
78835;BME280;68187;42.682;23.352;2023-04-01T01:18:27;94223.28;;;10.37;60.84
78835;BME280;68187;42.682;23.352;2023-04-01T01:21:16;94190.16;;;10.26;60.60
78835;BME280;68187;42.682;23.352;2023-04-01T01:24:11;94197.72;;;10.32;60.21
78835;BME280;68187;42.682;23.352;2023-04-01T01:26:55;94197.44;;;10.34;60.14
78835;BME280;68187;42.682;23.352;2023-04-01T01:35:22;94193.50;;;10.50;59.97
78835;BME280;68187;42.682;23.352;2023-04-01T01:37:53;94124.38;;;9.92;59.79
78835;BME280;68187;42.682;23.352;2023-04-01T01:40:22;94174.28;;;10.31;59.73
78835;BME280;68187;42.682;23.352;2023-04-01T01:42:54;94182.25;;;10.44;59.09
78835;BME280;68187;42.682;23.352;2023-04-01T01:45:25;94166.56;;;10.34;59.17
78835;BME280;68187;42.682;23.352;2023-04-01T01:47:53;94169.56;;;10.46;59.64
78835;BME280;68187;42.682;23.352;2023-04-01T01:50:23;94191.88;;;10.54;59.14
78835;BME280;68187;42.682;23.352;2023-04-01T01:53:00;94162.00;;;10.40;59.01
78835;BME280;68187;42.682;23.352;2023-04-01T01:55:30;94181.53;;;10.57;59.44
78835;BME280;68187;42.682;23.352;2023-04-01T01:57:59;94177.41;;;10.51;58.75
78835;BME280;68187;42.682;23.352;2023-04-01T02:00:27;94152.94;;;10.46;58.24
78835;BME280;68187;42.682;23.352;2023-04-01T02:02:56;94167.28;;;10.58;59.79
78835;BME280;68187;42.682;23.352;2023-04-01T02:05:27;94174.59;;;10.61;59.54
78835;BME280;68187;42.682;23.352;2023-04-01T02:08:00;94161.28;;;10.53;59.56
78835;BME280;68187;42.682;23.352;2023-04-01T02:10:31;94162.75;;;10.59;60.08
78835;BME280;68187;42.682;23.352;2023-04-01T02:13:05;94156.19;;;10.56;59.98
78835;BME280;68187;42.682;23.352;2023-04-01T02:15:38;94159.63;;;10.57;60.70
78835;BME280;68187;42.682;23.352;2023-04-01T02:18:07;94163.53;;;10.59;60.47
78835;BME280;68187;42.682;23.352;2023-04-01T02:20:36;94149.91;;;10.52;59.80
78835;BME280;68187;42.682;23.352;2023-04-01T02:23:04;94155.13;;;10.57;59.51
78835;BME280;68187;42.682;23.352;2023-04-01T02:25:35;94137.81;;;10.51;59.18
78835;BME280;68187;42.682;23.352;2023-04-01T02:28:04;94147.69;;;10.59;59.91
78835;BME280;68187;42.682;23.352;2023-04-01T02:30:32;94117.31;;;10.43;60.59
78835;BME280;68187;42.682;23.352;2023-04-01T02:33:01;94147.00;;;10.54;59.53
78835;BME280;68187;42.682;23.352;2023-04-01T02:35:28;94154.34;;;10.57;59.49
78835;BME280;68187;42.682;23.352;2023-04-01T02:37:57;94122.91;;;10.42;59.11
78835;BME280;68187;42.682;23.352;2023-04-01T02:40:24;94133.22;;;10.38;59.54
78835;BME280;68187;42.682;23.352;2023-04-01T02:42:51;94153.66;;;10.51;61.03
78835;BME280;68187;42.682;23.352;2023-04-01T02:45:18;94123.03;;;10.32;59.90
78835;BME280;68187;42.682;23.352;2023-04-01T02:47:45;94163.19;;;10.47;60.07
78835;BME280;68187;42.682;23.352;2023-04-01T02:50:11;94145.88;;;10.41;59.65
78835;BME280;68187;42.682;23.352;2023-04-01T02:52:38;94175.47;;;10.57;60.75
78835;BME280;68187;42.682;23.352;2023-04-01T02:55:07;94177.66;;;10.50;60.58
78835;BME280;68187;42.682;23.352;2023-04-01T02:57:34;94176.97;;;10.44;60.73
78835;BME280;68187;42.682;23.352;2023-04-01T03:00:00;94168.94;;;10.36;61.17
78835;BME280;68187;42.682;23.352;2023-04-01T03:02:27;94178.16;;;10.52;60.46
78835;BME280;68187;42.682;23.352;2023-04-01T03:04:54;94190.88;;;10.50;60.53
78835;BME280;68187;42.682;23.352;2023-04-01T03:07:21;94173.13;;;10.37;60.66
78835;BME280;68187;42.682;23.352;2023-04-01T03:09:48;94166.13;;;10.27;60.45
78835;BME280;68187;42.682;23.352;2023-04-01T03:12:16;94175.31;;;10.30;60.27
78835;BME280;68187;42.682;23.352;2023-04-01T03:14:44;94192.50;;;10.27;60.37
78835;BME280;68187;42.682;23.352;2023-04-01T03:17:10;94154.59;;;9.99;60.71
78835;BME280;68187;42.682;23.352;2023-04-01T03:19:37;94186.25;;;10.23;60.04
78835;BME280;68187;42.682;23.352;2023-04-01T03:22:04;94186.38;;;10.13;60.89
78835;BME280;68187;42.682;23.352;2023-04-01T03:24:31;94164.94;;;9.96;61.26
78835;BME280;68187;42.682;23.352;2023-04-01T03:26:57;94198.28;;;10.11;60.98
78835;BME280;68187;42.682;23.352;2023-04-01T03:29:25;94206.75;;;10.07;61.51
78835;BME280;68187;42.682;23.352;2023-04-01T03:31:52;94218.09;;;10.08;nan
78835;BME280;68187;42.682;23.352;2023-04-01T03:34:19;94199.13;;;10.06;61.57
78835;BME280;68187;42.682;23.352;2023-04-01T03:36:46;94203.00;;;10.14;61.63
78835;BME280;68187;42.682;23.352;2023-04-01T03:39:12;94201.69;;;10.11;61.96
78835;BME280;68187;42.682;23.352;2023-04-01T03:41:39;94205.56;;;10.19;62.75
78835;BME280;68187;42.682;23.352;2023-04-01T03:44:06;94186.03;;;10.20;62.87
78835;BME280;68187;42.682;23.352;2023-04-01T03:46:34;94173.13;;;10.18;63.43
78835;BME280;68187;42.682;23.352;2023-04-01T03:49:01;94130.34;;;9.97;63.66
78835;BME280;68187;42.682;23.352;2023-04-01T03:51:28;94152.94;;;10.27;62.86
78835;BME280;68187;42.682;23.352;2023-04-01T03:53:55;94148.25;;;10.24;62.89
78835;BME280;68187;42.682;23.352;2023-04-01T03:56:22;94134.03;;;10.20;62.02
78835;BME280;68187;42.682;23.352;2023-04-01T03:58:48;94124.06;;;10.17;62.98
78835;BME280;68187;42.682;23.352;2023-04-01T04:01:17;94091.22;;;10.04;63.08
78835;BME280;68187;42.682;23.352;2023-04-01T04:03:47;94098.19;;;10.19;63.35
78835;BME280;68187;42.682;23.352;2023-04-01T04:06:15;94095.16;;;10.26;63.12
78835;BME280;68187;42.682;23.352;2023-04-01T04:08:42;94053.97;;;10.11;62.81
78835;BME280;68187;42.682;23.352;2023-04-01T04:11:09;94083.47;;;10.32;61.83
78835;BME280;68187;42.682;23.352;2023-04-01T04:13:36;94067.13;;;10.30;60.99
78835;BME280;68187;42.682;23.352;2023-04-01T04:16:03;94070.75;;;10.34;60.91
78835;BME280;68187;42.682;23.352;2023-04-01T04:18:30;94065.69;;;10.37;60.91
78835;BME280;68187;42.682;23.352;2023-04-01T04:20:58;94042.16;;;10.22;60.53
78835;BME280;68187;42.682;23.352;2023-04-01T04:23:25;94069.31;;;10.41;60.35
78835;BME280;68187;42.682;23.352;2023-04-01T04:25:56;94076.75;;;10.39;59.73
78835;BME280;68187;42.682;23.352;2023-04-01T04:28:24;94041.72;;;10.34;59.63
78835;BME280;68187;42.682;23.352;2023-04-01T04:30:51;94051.06;;;10.45;59.81
78835;BME280;68187;42.682;23.352;2023-04-01T04:33:18;94029.69;;;10.28;59.25
78835;BME280;68187;42.682;23.352;2023-04-01T04:35:45;94034.47;;;10.26;59.58
78835;BME280;68187;42.682;23.352;2023-04-01T04:38:13;94000.00;;;10.03;60.03
78835;BME280;68187;42.682;23.352;2023-04-01T04:40:41;94035.84;;;10.23;59.45
78835;BME280;68187;42.682;23.352;2023-04-01T04:43:10;94028.78;;;10.19;59.25
78835;BME280;68187;42.682;23.352;2023-04-01T04:45:37;94019.28;;;10.18;59.55
78835;BME280;68187;42.682;23.352;2023-04-01T04:48:05;94031.53;;;10.27;59.67
78835;BME280;68187;42.682;23.352;2023-04-01T04:50:33;94028.91;;;10.27;60.05
78835;BME280;68187;42.682;23.352;2023-04-01T04:52:59;94020.00;;;10.23;59.71
78835;BME280;68187;42.682;23.352;2023-04-01T04:55:28;94025.69;;;10.30;59.31
78835;BME280;68187;42.682;23.352;2023-04-01T04:57:55;93988.56;;;10.08;59.10
78835;BME280;68187;42.682;23.352;2023-04-01T05:00:21;94017.56;;;10.27;59.03
78835;BME280;68187;42.682;23.352;2023-04-01T05:02:48;94017.38;;;10.23;59.00
78835;BME280;68187;42.682;23.352;2023-04-01T05:05:15;94007.47;;;10.15;59.74
78835;BME280;68187;42.682;23.352;2023-04-01T05:07:42;94017.44;;;10.18;60.28
78835;BME280;68187;42.682;23.352;2023-04-01T05:10:09;94011.28;;;10.23;58.89
78835;BME280;68187;42.682;23.352;2023-04-01T05:12:37;93998.69;;;10.20;59.09
78835;BME280;68187;42.682;23.352;2023-04-01T05:15:05;93994.97;;;10.21;59.61
78835;BME280;68187;42.682;23.352;2023-04-01T05:17:32;93985.94;;;10.08;60.96
78835;BME280;68187;42.682;23.352;2023-04-01T05:19:59;93990.91;;;10.10;60.67
78835;BME280;68187;42.682;23.352;2023-04-01T05:22:26;93990.19;;;10.04;60.33
78835;BME280;68187;42.682;23.352;2023-04-01T05:24:55;93970.56;;;9.96;59.43
78835;BME280;68187;42.682;23.352;2023-04-01T05:27:22;93953.88;;;10.01;59.43
78835;BME280;68187;42.682;23.352;2023-04-01T05:29:50;93972.09;;;10.16;60.49
78835;BME280;68187;42.682;23.352;2023-04-01T05:32:17;93962.19;;;10.08;59.67
78835;BME280;68187;42.682;23.352;2023-04-01T05:34:44;93947.22;;;10.03;59.28
78835;BME280;68187;42.682;23.352;2023-04-01T05:37:10;93958.34;;;10.19;58.94
78835;BME280;68187;42.682;23.352;2023-04-01T05:39:37;93975.06;;;10.28;59.55
78835;BME280;68187;42.682;23.352;2023-04-01T05:42:06;93972.91;;;10.30;58.83
78835;BME280;68187;42.682;23.352;2023-04-01T05:44:33;93996.69;;;10.44;58.99
78835;BME280;68187;42.682;23.352;2023-04-01T05:47:02;93982.59;;;10.35;59.53
78835;BME280;68187;42.682;23.352;2023-04-01T05:49:29;93981.03;;;10.34;59.37
78835;BME280;68187;42.682;23.352;2023-04-01T05:51:55;93980.66;;;10.40;60.06
78835;BME280;68187;42.682;23.352;2023-04-01T05:54:22;93967.84;;;10.47;59.82
78835;BME280;68187;42.682;23.352;2023-04-01T05:56:49;93948.22;;;10.53;59.08
78835;BME280;68187;42.682;23.352;2023-04-01T05:59:16;93940.00;;;10.68;58.43
78835;BME280;68187;42.682;23.352;2023-04-01T06:01:42;93956.31;;;10.98;55.80
78835;BME280;68187;42.682;23.352;2023-04-01T06:04:13;93969.31;;;11.21;55.26
78835;BME280;68187;42.682;23.352;2023-04-01T06:06:40;93949.59;;;11.41;54.26
78835;BME280;68187;42.682;23.352;2023-04-01T06:09:13;93924.91;;;11.45;53.66
78835;BME280;68187;42.682;23.352;2023-04-01T06:11:51;93965.19;;;12.00;52.49
78835;BME280;68187;42.682;23.352;2023-04-01T06:14:30;93959.03;;;12.13;51.48
78835;BME280;68187;42.682;23.352;2023-04-01T06:17:12;93959.75;;;12.28;51.27
78835;BME280;68187;42.682;23.352;2023-04-01T06:19:51;93934.97;;;12.24;51.15
78835;BME280;68187;42.682;23.352;2023-04-01T06:22:43;93955.75;;;12.39;50.88
78835;BME280;68187;42.682;23.352;2023-04-01T06:25:28;93950.13;;;12.32;51.23
78835;BME280;68187;42.682;23.352;2023-04-01T06:28:09;93960.41;;;12.33;51.15
78835;BME280;68187;42.682;23.352;2023-04-01T06:30:44;93970.22;;;12.33;51.06
78835;BME280;68187;42.682;23.352;2023-04-01T06:33:36;93943.09;;;12.27;52.33
78835;BME280;68187;42.682;23.352;2023-04-01T06:36:32;93943.97;;;12.45;52.88
78835;BME280;68187;42.682;23.352;2023-04-01T06:39:15;93952.75;;;12.54;52.57
78835;BME280;68187;42.682;23.352;2023-04-01T06:42:12;93937.41;;;12.42;52.45
78835;BME280;68187;42.682;23.352;2023-04-01T06:44:52;93905.88;;;12.24;53.70
78835;BME280;68187;42.682;23.352;2023-04-01T06:47:34;93932.13;;;12.42;53.31
78835;BME280;68187;42.682;23.352;2023-04-01T06:50:07;93933.03;;;12.38;53.41
78835;BME280;68187;42.682;23.352;2023-04-01T06:52:47;93934.63;;;12.16;54.12
78835;BME280;68187;42.682;23.352;2023-04-01T06:55:27;93915.50;;;12.20;54.28
78835;BME280;68187;42.682;23.352;2023-04-01T06:57:59;93896.19;;;12.19;54.56
78835;BME280;68187;42.682;23.352;2023-04-01T07:00:29;93895.63;;;12.31;54.87
78835;BME280;68187;42.682;23.352;2023-04-01T07:03:05;93900.16;;;12.39;53.77
78835;BME280;68187;42.682;23.352;2023-04-01T07:05:34;93887.84;;;12.34;54.32
78835;BME280;68187;42.682;23.352;2023-04-01T07:08:08;93915.13;;;12.43;54.11
78835;BME280;68187;42.682;23.352;2023-04-01T07:10:43;93909.41;;;12.50;54.74
78835;BME280;68187;42.682;23.352;2023-04-01T07:13:15;93902.56;;;12.49;54.16
78835;BME280;68187;42.682;23.352;2023-04-01T07:15:56;93885.09;;;12.56;54.72
78835;BME280;68187;42.682;23.352;2023-04-01T07:18:30;93895.94;;;12.77;53.68
78835;BME280;68187;42.682;23.352;2023-04-01T07:20:59;93883.66;;;12.81;53.89
78835;BME280;68187;42.682;23.352;2023-04-01T07:23:31;93867.91;;;12.84;54.06
78835;BME280;68187;42.682;23.352;2023-04-01T07:26:08;93906.28;;;12.96;54.05
78835;BME280;68187;42.682;23.352;2023-04-01T07:28:40;93898.19;;;13.01;53.41
78835;BME280;68187;42.682;23.352;2023-04-01T07:31:18;93894.28;;;12.98;53.60
78835;BME280;68187;42.682;23.352;2023-04-01T07:33:54;93894.63;;;13.05;54.54
78835;BME280;68187;42.682;23.352;2023-04-01T07:36:29;93890.59;;;13.08;54.93
78835;BME280;68187;42.682;23.352;2023-04-01T07:39:08;93875.13;;;13.01;54.84
78835;BME280;68187;42.682;23.352;2023-04-01T07:41:46;93878.72;;;13.05;54.99
78835;BME280;68187;42.682;23.352;2023-04-01T07:44:20;93900.44;;;13.33;54.69
78835;BME280;68187;42.682;23.352;2023-04-01T07:47:01;93883.47;;;13.42;54.23
78835;BME280;68187;42.682;23.352;2023-04-01T07:49:40;93887.19;;;13.50;53.67
78835;BME280;68187;42.682;23.352;2023-04-01T07:52:16;93885.94;;;13.56;53.34
78835;BME280;68187;42.682;23.352;2023-04-01T07:54:50;93860.81;;;13.53;53.09
78835;BME280;68187;42.682;23.352;2023-04-01T07:57:23;93866.59;;;13.64;52.35
78835;BME280;68187;42.682;23.352;2023-04-01T07:59:59;93873.13;;;13.67;52.61
78835;BME280;68187;42.682;23.352;2023-04-01T08:02:41;93860.50;;;13.64;52.01
78835;BME280;68187;42.682;23.352;2023-04-01T08:05:18;93859.06;;;13.75;51.74
78835;BME280;68187;42.682;23.352;2023-04-01T08:07:50;93857.66;;;13.77;51.57
78835;BME280;68187;42.682;23.352;2023-04-01T08:10:29;93863.59;;;13.83;50.97
78835;BME280;68187;42.682;23.352;2023-04-01T08:13:05;93845.19;;;13.78;51.18
78835;BME280;68187;42.682;23.352;2023-04-01T08:15:41;93863.09;;;13.98;50.66
78835;BME280;68187;42.682;23.352;2023-04-01T08:18:22;93842.63;;;13.98;50.64
78835;BME280;68187;42.682;23.352;2023-04-01T08:20:57;93824.84;;;13.99;50.02
78835;BME280;68187;42.682;23.352;2023-04-01T08:23:27;93836.78;;;14.22;49.88
78835;BME280;68187;42.682;23.352;2023-04-01T08:26:00;93831.47;;;14.31;49.62
78835;BME280;68187;42.682;23.352;2023-04-01T08:28:32;93833.47;;;14.42;49.73
78835;BME280;68187;42.682;23.352;2023-04-01T08:31:04;93826.53;;;14.50;49.51
78835;BME280;68187;42.682;23.352;2023-04-01T08:33:32;93814.19;;;14.54;49.36
78835;BME280;68187;42.682;23.352;2023-04-01T08:36:03;93799.78;;;14.55;49.60
78835;BME280;68187;42.682;23.352;2023-04-01T08:38:36;93792.22;;;14.65;49.03
78835;BME280;68187;42.682;23.352;2023-04-01T08:41:26;93768.00;;;14.67;49.69
78835;BME280;68187;42.682;23.352;2023-04-01T08:44:30;93783.03;;;14.83;49.41
78835;BME280;68187;42.682;23.352;2023-04-01T08:50:46;93754.00;;;14.78;49.09
78835;BME280;68187;42.682;23.352;2023-04-01T08:53:25;93762.81;;;14.91;48.01
78835;BME280;68187;42.682;23.352;2023-04-01T08:56:06;93720.72;;;14.72;49.11
78835;BME280;68187;42.682;23.352;2023-04-01T08:58:46;93762.88;;;15.24;46.76
78835;BME280;68187;42.682;23.352;2023-04-01T09:01:24;93752.78;;;15.50;45.99
78835;BME280;68187;42.682;23.352;2023-04-01T09:04:01;93752.53;;;15.76;43.61
78835;BME280;68187;42.682;23.352;2023-04-01T09:06:34;93775.06;;;15.90;42.97
78835;BME280;68187;42.682;23.352;2023-04-01T09:09:25;93763.22;;;16.00;43.47
78835;BME280;68187;42.682;23.352;2023-04-01T09:12:14;93767.34;;;16.09;43.64
78835;BME280;68187;42.682;23.352;2023-04-01T09:18:22;93764.25;;;16.19;41.99
78835;BME280;68187;42.682;23.352;2023-04-01T09:20:59;93746.72;;;16.18;42.59
78835;BME280;68187;42.682;23.352;2023-04-01T09:23:53;93749.25;;;16.27;39.85
78835;BME280;68187;42.682;23.352;2023-04-01T09:29:27;93751.16;;;16.38;39.10
78835;BME280;68187;42.682;23.352;2023-04-01T09:32:22;93732.94;;;16.40;37.99
78835;BME280;68187;42.682;23.352;2023-04-01T09:34:56;93714.72;;;16.42;38.15
78835;BME280;68187;42.682;23.352;2023-04-01T09:37:34;93708.81;;;16.49;38.33
78835;BME280;68187;42.682;23.352;2023-04-01T09:40:14;93727.72;;;16.56;38.73
78835;BME280;68187;42.682;23.352;2023-04-01T09:42:45;93713.28;;;16.45;39.84
78835;BME280;68187;42.682;23.352;2023-04-01T09:45:37;93698.72;;;16.42;39.08
78835;BME280;68187;42.682;23.352;2023-04-01T09:48:23;93707.94;;;16.45;39.69
78835;BME280;68187;42.682;23.352;2023-04-01T09:51:01;93684.53;;;16.38;40.18
78835;BME280;68187;42.682;23.352;2023-04-01T09:53:46;93696.75;;;16.52;39.88
78835;BME280;68187;42.682;23.352;2023-04-01T09:56:42;93685.44;;;16.55;39.19
78835;BME280;68187;42.682;23.352;2023-04-01T09:59:52;93685.19;;;16.60;40.60
78835;BME280;68187;42.682;23.352;2023-04-01T10:02:44;93666.97;;;16.50;41.90
78835;BME280;68187;42.682;23.352;2023-04-01T10:12:07;93687.28;;;16.66;42.10
78835;BME280;68187;42.682;23.352;2023-04-01T10:15:17;93667.66;;;16.59;41.32
78835;BME280;68187;42.682;23.352;2023-04-01T10:18:17;93669.88;;;16.57;42.24
78835;BME280;68187;42.682;23.352;2023-04-01T10:21:12;93665.91;;;16.51;42.67
78835;BME280;68187;42.682;23.352;2023-04-01T10:24:03;93664.09;;;16.42;41.96
78835;BME280;68187;42.682;23.352;2023-04-01T10:27:06;93669.97;;;16.48;41.42
78835;BME280;68187;42.682;23.352;2023-04-01T10:39:34;93652.13;;;16.24;41.39
78835;BME280;68187;42.682;23.352;2023-04-01T10:42:41;93651.81;;;16.26;41.77
78835;BME280;68187;42.682;23.352;2023-04-01T10:49:00;93614.88;;;16.00;43.35
78835;BME280;68187;42.682;23.352;2023-04-01T10:51:50;93627.75;;;15.98;42.70
78835;BME280;68187;42.682;23.352;2023-04-01T10:54:44;93630.28;;;15.95;42.60
78835;BME280;68187;42.682;23.352;2023-04-01T10:57:27;93589.50;;;15.79;43.25
78835;BME280;68187;42.682;23.352;2023-04-01T11:00:14;93625.31;;;15.93;43.39
78835;BME280;68187;42.682;23.352;2023-04-01T11:06:21;93611.34;;;15.96;43.10
78835;BME280;68187;42.682;23.352;2023-04-01T11:18:39;93599.13;;;15.95;42.95
78835;BME280;68187;42.682;23.352;2023-04-01T11:24:21;93578.63;;;15.72;43.37
78835;BME280;68187;42.682;23.352;2023-04-01T11:27:07;93616.00;;;15.87;44.21
78835;BME280;68187;42.682;23.352;2023-04-01T11:29:54;93631.75;;;15.92;43.94
78835;BME280;68187;42.682;23.352;2023-04-01T11:32:46;93653.06;;;15.92;43.85
78835;BME280;68187;42.682;23.352;2023-04-01T11:35:42;93654.94;;;15.80;44.19
78835;BME280;68187;42.682;23.352;2023-04-01T11:38:22;93682.63;;;15.54;43.49
78835;BME280;68187;42.682;23.352;2023-04-01T11:40:58;93697.59;;;15.59;44.72
78835;BME280;68187;42.682;23.352;2023-04-01T11:43:31;93699.06;;;15.36;46.25
78835;BME280;68187;42.682;23.352;2023-04-01T11:46:04;93751.56;;;15.27;49.92
78835;BME280;68187;42.682;23.352;2023-04-01T11:48:50;93772.56;;;14.87;49.63
78835;BME280;68187;42.682;23.352;2023-04-01T11:51:38;93798.94;;;14.42;54.31
78835;BME280;68187;42.682;23.352;2023-04-01T11:54:19;93845.47;;;13.93;60.01
78835;BME280;68187;42.682;23.352;2023-04-01T11:57:04;93869.53;;;13.11;65.77
78835;BME280;68187;42.682;23.352;2023-04-01T11:59:55;93873.41;;;12.40;69.43
78835;BME280;68187;42.682;23.352;2023-04-01T12:02:29;93881.38;;;12.18;70.63
78835;BME280;68187;42.682;23.352;2023-04-01T12:05:20;93882.31;;;11.91;71.75
78835;BME280;68187;42.682;23.352;2023-04-01T12:08:06;93890.69;;;11.85;72.99
78835;BME280;68187;42.682;23.352;2023-04-01T12:10:39;93859.84;;;11.80;72.68
78835;BME280;68187;42.682;23.352;2023-04-01T12:13:16;93861.66;;;11.71;75.44
78835;BME280;68187;42.682;23.352;2023-04-01T12:15:58;93866.38;;;11.74;76.37
78835;BME280;68187;42.682;23.352;2023-04-01T12:18:35;93862.91;;;11.96;76.38
78835;BME280;68187;42.682;23.352;2023-04-01T12:21:16;93867.97;;;12.14;75.75
78835;BME280;68187;42.682;23.352;2023-04-01T12:24:04;93868.50;;;12.34;74.42
78835;BME280;68187;42.682;23.352;2023-04-01T12:26:43;93857.88;;;12.56;77.26
78835;BME280;68187;42.682;23.352;2023-04-01T12:29:36;93870.69;;;12.71;73.75
78835;BME280;68187;42.682;23.352;2023-04-01T12:32:15;93880.94;;;12.64;74.46
78835;BME280;68187;42.682;23.352;2023-04-01T12:34:58;93855.63;;;12.41;74.91
78835;BME280;68187;42.682;23.352;2023-04-01T12:37:36;93841.06;;;12.21;75.77
78835;BME280;68187;42.682;23.352;2023-04-01T12:40:20;93862.81;;;12.09;75.07
78835;BME280;68187;42.682;23.352;2023-04-01T12:43:05;93878.09;;;11.90;75.56
78835;BME280;68187;42.682;23.352;2023-04-01T12:45:43;93885.34;;;11.76;75.22
78835;BME280;68187;42.682;23.352;2023-04-01T12:57:33;93867.66;;;11.41;76.68
78835;BME280;68187;42.682;23.352;2023-04-01T13:00:16;93859.97;;;11.53;77.15
78835;BME280;68187;42.682;23.352;2023-04-01T13:03:00;93843.63;;;11.51;77.25
78835;BME280;68187;42.682;23.352;2023-04-01T13:08:37;93831.63;;;11.67;76.84
78835;BME280;68187;42.682;23.352;2023-04-01T13:11:15;93819.16;;;11.68;77.63
78835;BME280;68187;42.682;23.352;2023-04-01T13:16:46;93778.91;;;11.71;71.94
78835;BME280;68187;42.682;23.352;2023-04-01T13:19:21;93778.72;;;12.06;70.68
78835;BME280;68187;42.682;23.352;2023-04-01T13:21:54;93791.25;;;12.23;72.61
78835;BME280;68187;42.682;23.352;2023-04-01T13:24:42;93779.41;;;12.21;74.35
78835;BME280;68187;42.682;23.352;2023-04-01T13:27:18;93792.59;;;12.60;74.14
78835;BME280;68187;42.682;23.352;2023-04-01T13:30:08;93778.94;;;13.09;73.61
78835;BME280;68187;42.682;23.352;2023-04-01T13:32:44;93780.94;;;13.29;72.52
78835;BME280;68187;42.682;23.352;2023-04-01T13:35:20;93756.28;;;13.46;71.54
78835;BME280;68187;42.682;23.352;2023-04-01T13:37:58;93762.09;;;13.86;67.71
78835;BME280;68187;42.682;23.352;2023-04-01T13:40:34;93752.72;;;14.26;68.15
78835;BME280;68187;42.682;23.352;2023-04-01T13:43:11;93746.81;;;14.58;65.20
78835;BME280;68187;42.682;23.352;2023-04-01T13:45:57;93739.34;;;14.72;
78835;BME280;68187;42.682;23.352;2023-04-01T13:48:43;93717.63;;;14.70;62.37
78835;BME280;68187;42.682;23.352;2023-04-01T13:51:30;93726.50;;;14.74;60.86
78835;BME280;68187;42.682;23.352;2023-04-01T13:54:31;93729.94;;;14.75;62.68
78835;BME280;68187;42.682;23.352;2023-04-01T13:57:16;93726.38;;;14.91;65.64
78835;BME280;68187;42.682;23.352;2023-04-01T14:00:03;93731.44;;;15.38;64.13
78835;BME280;68187;42.682;23.352;2023-04-01T14:02:47;93734.16;;;16.07;62.82
78835;BME280;68187;42.682;23.352;2023-04-01T14:05:37;93710.19;;;16.95;57.17
78835;BME280;68187;42.682;23.352;2023-04-01T14:08:13;93689.75;;;17.70;54.35
78835;BME280;68187;42.682;23.352;2023-04-01T14:10:47;93684.84;;;18.50;50.75
78835;BME280;68187;42.682;23.352;2023-04-01T14:13:25;93704.19;;;18.78;49.85
78835;BME280;68187;42.682;23.352;2023-04-01T14:16:05;93692.56;;;19.47;48.39
78835;BME280;68187;42.682;23.352;2023-04-01T14:18:47;93683.97;;;19.57;46.61
78835;BME280;68187;42.682;23.352;2023-04-01T14:21:29;93683.47;;;18.09;49.67
78835;BME280;68187;42.682;23.352;2023-04-01T14:24:32;93664.31;;;16.62;51.88
78835;BME280;68187;42.682;23.352;2023-04-01T14:27:18;93660.03;;;16.09;54.60
78835;BME280;68187;42.682;23.352;2023-04-01T14:30:00;93666.44;;;16.96;52.91
78835;BME280;68187;42.682;23.352;2023-04-01T14:32:39;93658.19;;;17.01;52.61
78835;BME280;68187;42.682;23.352;2023-04-01T14:35:26;93647.78;;;16.32;52.57
78835;BME280;68187;42.682;23.352;2023-04-01T14:38:04;93654.81;;;17.04;52.69
78835;BME280;68187;42.682;23.352;2023-04-01T14:40:50;93656.69;;;18.56;47.33